sensor_id;sensor_type;location;lat;lon;timestamp;noise_LAeq;noise_LA_min;noise_LA_max;noise_LA01;noise_LA95
76338;Laerm;20358;50.272;19.026;2022-11-15T00:02:08;47.00;33.90;58.13;;
76338;Laerm;20358;50.272;19.026;2022-11-15T00:04:34;46.43;34.27;68.74;;
76338;Laerm;20358;50.272;19.026;2022-11-15T00:06:59;40.69;33.49;51.40;;
76338;Laerm;20358;50.272;19.026;2022-11-15T00:09:25;41.48;33.44;62.20;;
76338;Laerm;20358;50.272;19.026;2022-11-15T00:11:51;46.19;33.60;66.10;;
76338;Laerm;20358;50.272;19.026;2022-11-15T00:14:17;40.90;33.74;53.28;;
76338;Laerm;20358;50.272;19.026;2022-11-15T00:16:46;44.22;33.90;62.35;;
76338;Laerm;20358;50.272;19.026;2022-11-15T00:19:11;42.54;33.59;58.27;;
76338;Laerm;20358;50.272;19.026;2022-11-15T00:21:36;43.80;33.48;61.94;;
76338;Laerm;20358;50.272;19.026;2022-11-15T00:24:05;42.89;34.15;53.30;;
76338;Laerm;20358;50.272;19.026;2022-11-15T00:26:30;41.40;33.93;57.68;;
76338;Laerm;20358;50.272;19.026;2022-11-15T00:28:56;43.52;33.71;61.32;;
76338;Laerm;20358;50.272;19.026;2022-11-15T00:31:23;35.66;33.52;38.70;;
76338;Laerm;20358;50.272;19.026;2022-11-15T00:33:51;40.91;34.23;58.60;;
76338;Laerm;20358;50.272;19.026;2022-11-15T00:36:16;36.90;34.31;45.28;;
76338;Laerm;20358;50.272;19.026;2022-11-15T00:38:42;39.55;33.91;49.20;;
76338;Laerm;20358;50.272;19.026;2022-11-15T00:41:08;42.85;34.60;56.07;;
76338;Laerm;20358;50.272;19.026;2022-11-15T00:43:33;42.01;34.04;55.91;;
76338;Laerm;20358;50.272;19.026;2022-11-15T00:45:59;39.50;33.92;51.42;;
76338;Laerm;20358;50.272;19.026;2022-11-15T00:48:25;39.16;34.24;59.15;;
76338;Laerm;20358;50.272;19.026;2022-11-15T00:50:52;41.34;34.23;54.79;;
76338;Laerm;20358;50.272;19.026;2022-11-15T00:53:19;43.35;34.59;60.61;;
76338;Laerm;20358;50.272;19.026;2022-11-15T00:55:44;40.70;34.08;60.97;;
76338;Laerm;20358;50.272;19.026;2022-11-15T00:58:09;38.70;34.97;48.28;;
76338;Laerm;20358;50.272;19.026;2022-11-15T01:00:35;39.62;34.46;50.26;;
76338;Laerm;20358;50.272;19.026;2022-11-15T01:03:03;41.63;34.42;53.63;;
76338;Laerm;20358;50.272;19.026;2022-11-15T01:05:28;37.40;33.71;52.12;;
76338;Laerm;20358;50.272;19.026;2022-11-15T01:07:57;40.07;33.76;57.38;;
76338;Laerm;20358;50.272;19.026;2022-11-15T01:10:24;40.87;33.65;56.07;;
76338;Laerm;20358;50.272;19.026;2022-11-15T01:12:50;39.83;34.20;55.52;;
76338;Laerm;20358;50.272;19.026;2022-11-15T01:15:16;37.71;34.33;48.24;;
76338;Laerm;20358;50.272;19.026;2022-11-15T01:17:42;38.14;33.89;50.62;;
76338;Laerm;20358;50.272;19.026;2022-11-15T01:20:10;35.75;33.67;42.29;;
76338;Laerm;20358;50.272;19.026;2022-11-15T01:22:37;45.05;34.08;65.79;;
76338;Laerm;20358;50.272;19.026;2022-11-15T01:25:07;39.80;34.22;54.09;;
76338;Laerm;20358;50.272;19.026;2022-11-15T01:27:32;39.75;34.29;58.42;;
76338;Laerm;20358;50.272;19.026;2022-11-15T01:29:58;36.19;33.72;46.08;;
76338;Laerm;20358;50.272;19.026;2022-11-15T01:32:24;40.67;34.33;57.94;;
76338;Laerm;20358;50.272;19.026;2022-11-15T01:34:49;42.75;34.65;58.43;;
76338;Laerm;20358;50.272;19.026;2022-11-15T01:37:15;35.96;33.73;52.26;;
76338;Laerm;20358;50.272;19.026;2022-11-15T01:39:40;36.82;34.03;43.13;;
76338;Laerm;20358;50.272;19.026;2022-11-15T01:42:12;41.87;34.37;53.14;;
76338;Laerm;20358;50.272;19.026;2022-11-15T01:44:44;42.12;34.32;65.68;;
76338;Laerm;20358;50.272;19.026;2022-11-15T01:47:16;43.23;34.15;58.62;;
76338;Laerm;20358;50.272;19.026;2022-11-15T01:49:55;39.70;34.30;49.51;;
76338;Laerm;20358;50.272;19.026;2022-11-15T01:52:27;41.41;34.34;53.71;;
76338;Laerm;20358;50.272;19.026;2022-11-15T01:55:02;41.83;34.32;57.17;;
76338;Laerm;20358;50.272;19.026;2022-11-15T01:57:31;38.97;34.09;56.66;;
76338;Laerm;20358;50.272;19.026;2022-11-15T02:00:02;41.24;34.41;59.31;;
76338;Laerm;20358;50.272;19.026;2022-11-15T02:02:28;44.15;34.83;61.70;;
76338;Laerm;20358;50.272;19.026;2022-11-15T02:04:54;43.11;35.03;60.60;;
76338;Laerm;20358;50.272;19.026;2022-11-15T02:07:22;38.55;34.47;51.59;;
76338;Laerm;20358;50.272;19.026;2022-11-15T02:09:49;42.47;34.47;59.38;;
76338;Laerm;20358;50.272;19.026;2022-11-15T02:12:19;37.14;34.37;53.92;;
76338;Laerm;20358;50.272;19.026;2022-11-15T02:14:54;38.60;34.18;52.38;;
76338;Laerm;20358;50.272;19.026;2022-11-15T02:17:45;37.70;34.12;58.10;;
76338;Laerm;20358;50.272;19.026;2022-11-15T02:20:41;41.48;34.89;59.55;;
76338;Laerm;20358;50.272;19.026;2022-11-15T02:23:55;42.12;35.38;55.23;;
76338;Laerm;20358;50.272;19.026;2022-11-15T02:27:08;45.73;34.74;61.26;;
76338;Laerm;20358;50.272;19.026;2022-11-15T02:30:13;38.70;33.85;55.78;;
76338;Laerm;20358;50.272;19.026;2022-11-15T02:32:49;38.06;33.71;54.69;;
76338;Laerm;20358;50.272;19.026;2022-11-15T02:35:32;41.12;34.30;60.32;;
76338;Laerm;20358;50.272;19.026;2022-11-15T02:38:16;36.76;34.09;55.86;;
76338;Laerm;20358;50.272;19.026;2022-11-15T02:40:56;44.08;34.73;59.32;;
76338;Laerm;20358;50.272;19.026;2022-11-15T02:43:43;41.89;34.66;63.97;;
76338;Laerm;20358;50.272;19.026;2022-11-15T02:46:32;39.46;34.18;60.24;;
76338;Laerm;20358;50.272;19.026;2022-11-15T02:49:16;36.92;34.14;51.81;;
76338;Laerm;20358;50.272;19.026;2022-11-15T02:51:47;40.26;34.25;58.89;;
76338;Laerm;20358;50.272;19.026;2022-11-15T02:54:20;44.18;35.40;66.28;;
76338;Laerm;20358;50.272;19.026;2022-11-15T02:56:53;39.13;34.22;52.27;;
76338;Laerm;20358;50.272;19.026;2022-11-15T02:59:48;38.53;34.81;48.05;;
76338;Laerm;20358;50.272;19.026;2022-11-15T03:02:47;46.63;35.27;69.98;;
76338;Laerm;20358;50.272;19.026;2022-11-15T03:05:32;39.43;34.35;57.09;;
76338;Laerm;20358;50.272;19.026;2022-11-15T03:08:09;39.70;34.50;54.08;;
76338;Laerm;20358;50.272;19.026;2022-11-15T03:10:46;43.09;34.36;63.25;;
76338;Laerm;20358;50.272;19.026;2022-11-15T03:13:30;40.19;34.17;60.95;;
76338;Laerm;20358;50.272;19.026;2022-11-15T03:16:08;42.01;34.24;55.85;;
76338;Laerm;20358;50.272;19.026;2022-11-15T03:18:46;44.31;35.24;67.25;;
76338;Laerm;20358;50.272;19.026;2022-11-15T03:21:18;42.25;34.91;58.85;;
76338;Laerm;20358;50.272;19.026;2022-11-15T03:23:51;42.70;34.73;54.80;;
76338;Laerm;20358;50.272;19.026;2022-11-15T03:26:24;44.69;35.64;65.49;;
76338;Laerm;20358;50.272;19.026;2022-11-15T03:28:58;47.50;35.83;66.04;;
76338;Laerm;20358;50.272;19.026;2022-11-15T03:31:33;44.30;35.47;60.97;;
76338;Laerm;20358;50.272;19.026;2022-11-15T03:34:27;45.70;36.01;60.80;;
76338;Laerm;20358;50.272;19.026;2022-11-15T03:36:54;45.21;36.03;65.52;;
76338;Laerm;20358;50.272;19.026;2022-11-15T03:39:23;46.17;37.65;59.26;;
76338;Laerm;20358;50.272;19.026;2022-11-15T03:42:06;45.43;36.33;64.23;;
76338;Laerm;20358;50.272;19.026;2022-11-15T03:44:46;43.01;36.26;56.19;;
76338;Laerm;20358;50.272;19.026;2022-11-15T03:47:21;47.38;37.09;65.30;;
76338;Laerm;20358;50.272;19.026;2022-11-15T03:49:59;45.60;36.63;61.81;;
76338;Laerm;20358;50.272;19.026;2022-11-15T03:52:25;44.21;36.84;58.00;;
76338;Laerm;20358;50.272;19.026;2022-11-15T03:54:55;46.01;36.02;62.40;;
76338;Laerm;20358;50.272;19.026;2022-11-15T03:57:20;45.88;37.39;60.27;;
76338;Laerm;20358;50.272;19.026;2022-11-15T03:59:46;45.01;36.83;60.83;;
76338;Laerm;20358;50.272;19.026;2022-11-15T04:02:13;46.66;36.72;64.17;;
76338;Laerm;20358;50.272;19.026;2022-11-15T04:04:38;47.22;37.41;65.86;;
76338;Laerm;20358;50.272;19.026;2022-11-15T04:07:06;47.31;36.45;61.80;;
76338;Laerm;20358;50.272;19.026;2022-11-15T04:09:33;47.92;37.29;63.51;;
76338;Laerm;20358;50.272;19.026;2022-11-15T04:12:18;46.31;37.40;61.90;;
76338;Laerm;20358;50.272;19.026;2022-11-15T04:14:54;49.37;37.24;63.73;;
76338;Laerm;20358;50.272;19.026;2022-11-15T04:17:31;48.23;36.56;66.14;;
76338;Laerm;20358;50.272;19.026;2022-11-15T04:19:57;49.05;38.52;64.49;;
76338;Laerm;20358;50.272;19.026;2022-11-15T04:22:40;48.82;37.71;62.34;;
76338;Laerm;20358;50.272;19.026;2022-11-15T04:25:23;50.15;38.13;69.01;;
76338;Laerm;20358;50.272;19.026;2022-11-15T04:27:53;52.80;40.97;68.65;;
76338;Laerm;20358;50.272;19.026;2022-11-15T04:30:18;48.69;39.11;61.43;;
76338;Laerm;20358;50.272;19.026;2022-11-15T04:32:44;48.54;39.02;59.81;;
76338;Laerm;20358;50.272;19.026;2022-11-15T04:35:10;50.91;38.22;69.70;;
76338;Laerm;20358;50.272;19.026;2022-11-15T04:37:35;50.87;38.38;66.50;;
76338;Laerm;20358;50.272;19.026;2022-11-15T04:40:00;49.42;39.72;63.65;;
76338;Laerm;20358;50.272;19.026;2022-11-15T04:42:27;50.09;39.76;63.38;;
76338;Laerm;20358;50.272;19.026;2022-11-15T04:44:52;50.41;38.43;63.65;;
76338;Laerm;20358;50.272;19.026;2022-11-15T04:47:18;53.26;39.76;68.83;;
76338;Laerm;20358;50.272;19.026;2022-11-15T04:49:44;53.86;40.78;66.22;;
76338;Laerm;20358;50.272;19.026;2022-11-15T04:52:09;52.11;42.71;66.93;;
76338;Laerm;20358;50.272;19.026;2022-11-15T04:54:35;50.59;39.79;60.68;;
76338;Laerm;20358;50.272;19.026;2022-11-15T04:57:05;52.15;43.71;63.06;;
76338;Laerm;20358;50.272;19.026;2022-11-15T04:59:30;51.74;38.80;68.52;;
76338;Laerm;20358;50.272;19.026;2022-11-15T05:01:56;50.56;41.96;68.34;;
76338;Laerm;20358;50.272;19.026;2022-11-15T05:04:23;50.61;41.35;61.65;;
76338;Laerm;20358;50.272;19.026;2022-11-15T05:06:46;51.42;40.44;64.42;;
76338;Laerm;20358;50.272;19.026;2022-11-15T05:09:13;52.87;40.81;67.03;;
76338;Laerm;20358;50.272;19.026;2022-11-15T05:11:38;51.98;43.34;66.24;;
76338;Laerm;20358;50.272;19.026;2022-11-15T05:14:07;50.63;41.71;61.95;;
76338;Laerm;20358;50.272;19.026;2022-11-15T05:16:33;50.53;42.70;62.62;;
76338;Laerm;20358;50.272;19.026;2022-11-15T05:18:58;50.49;41.98;62.86;;
76338;Laerm;20358;50.272;19.026;2022-11-15T05:21:24;50.91;40.84;71.56;;
76338;Laerm;20358;50.272;19.026;2022-11-15T05:23:51;51.38;42.32;62.86;;
76338;Laerm;20358;50.272;19.026;2022-11-15T05:26:18;49.88;41.25;61.95;;
76338;Laerm;20358;50.272;19.026;2022-11-15T05:28:44;51.43;41.38;62.86;;
76338;Laerm;20358;50.272;19.026;2022-11-15T05:31:16;52.01;44.17;65.85;;
76338;Laerm;20358;50.272;19.026;2022-11-15T05:33:44;52.45;44.65;68.10;;
76338;Laerm;20358;50.272;19.026;2022-11-15T05:36:19;52.23;43.69;62.83;;
76338;Laerm;20358;50.272;19.026;2022-11-15T05:38:48;52.55;43.76;62.95;;
76338;Laerm;20358;50.272;19.026;2022-11-15T05:41:20;51.51;43.96;64.50;;
76338;Laerm;20358;50.272;19.026;2022-11-15T05:43:49;52.96;44.82;66.15;;
76338;Laerm;20358;50.272;19.026;2022-11-15T05:46:18;53.47;45.20;67.13;;
76338;Laerm;20358;50.272;19.026;2022-11-15T05:48:49;51.66;43.58;65.58;;
76338;Laerm;20358;50.272;19.026;2022-11-15T05:51:20;53.52;44.57;69.27;;
76338;Laerm;20358;50.272;19.026;2022-11-15T05:53:48;53.65;46.91;67.54;;
76338;Laerm;20358;50.272;19.026;2022-11-15T05:56:16;54.17;48.29;65.71;;
76338;Laerm;20358;50.272;19.026;2022-11-15T05:58:42;55.29;45.98;68.26;;
76338;Laerm;20358;50.272;19.026;2022-11-15T06:01:09;51.74;43.52;67.15;;
76338;Laerm;20358;50.272;19.026;2022-11-15T06:03:37;54.29;42.29;65.86;;
76338;Laerm;20358;50.272;19.026;2022-11-15T06:06:04;51.29;44.15;65.89;;
76338;Laerm;20358;50.272;19.026;2022-11-15T06:08:38;52.48;42.47;60.80;;
76338;Laerm;20358;50.272;19.026;2022-11-15T06:11:05;52.30;44.43;67.47;;
76338;Laerm;20358;50.272;19.026;2022-11-15T06:13:31;51.82;43.98;71.25;;
76338;Laerm;20358;50.272;19.026;2022-11-15T06:15:59;53.75;44.24;71.09;;
76338;Laerm;20358;50.272;19.026;2022-11-15T06:18:26;54.82;45.94;74.79;;
76338;Laerm;20358;50.272;19.026;2022-11-15T06:20:58;54.06;45.53;70.88;;
76338;Laerm;20358;50.272;19.026;2022-11-15T06:23:26;51.95;42.25;63.97;;
76338;Laerm;20358;50.272;19.026;2022-11-15T06:25:51;52.84;45.92;66.04;;
76338;Laerm;20358;50.272;19.026;2022-11-15T06:28:16;51.84;44.84;60.92;;
76338;Laerm;20358;50.272;19.026;2022-11-15T06:30:42;51.83;44.38;68.57;;
76338;Laerm;20358;50.272;19.026;2022-11-15T06:33:14;51.29;44.29;64.36;;
76338;Laerm;20358;50.272;19.026;2022-11-15T06:35:39;52.74;45.40;72.25;;
76338;Laerm;20358;50.272;19.026;2022-11-15T06:38:10;52.04;43.86;61.42;;
76338;Laerm;20358;50.272;19.026;2022-11-15T06:40:38;52.34;45.30;65.19;;
76338;Laerm;20358;50.272;19.026;2022-11-15T06:43:06;51.90;45.03;62.36;;
76338;Laerm;20358;50.272;19.026;2022-11-15T06:45:33;52.12;44.75;67.71;;
76338;Laerm;20358;50.272;19.026;2022-11-15T06:47:59;54.13;43.36;71.74;;
76338;Laerm;20358;50.272;19.026;2022-11-15T06:50:25;54.18;46.33;70.92;;
76338;Laerm;20358;50.272;19.026;2022-11-15T06:52:51;53.79;46.58;65.23;;
76338;Laerm;20358;50.272;19.026;2022-11-15T06:55:20;52.61;46.33;60.62;;
76338;Laerm;20358;50.272;19.026;2022-11-15T06:57:50;52.57;45.11;65.72;;
76338;Laerm;20358;50.272;19.026;2022-11-15T07:00:20;52.56;46.43;63.38;;
76338;Laerm;20358;50.272;19.026;2022-11-15T07:02:46;63.08;45.57;77.51;;
76338;Laerm;20358;50.272;19.026;2022-11-15T07:05:13;62.61;49.92;78.42;;
76338;Laerm;20358;50.272;19.026;2022-11-15T07:07:40;55.98;45.46;74.36;;
76338;Laerm;20358;50.272;19.026;2022-11-15T07:10:07;52.71;45.90;65.58;;
76338;Laerm;20358;50.272;19.026;2022-11-15T07:12:35;52.52;45.22;65.81;;
76338;Laerm;20358;50.272;19.026;2022-11-15T07:15:03;54.69;46.59;70.10;;
76338;Laerm;20358;50.272;19.026;2022-11-15T07:17:29;55.07;45.72;68.04;;
76338;Laerm;20358;50.272;19.026;2022-11-15T07:19:55;54.80;46.79;67.31;;
76338;Laerm;20358;50.272;19.026;2022-11-15T07:22:21;54.80;47.59;68.16;;
76338;Laerm;20358;50.272;19.026;2022-11-15T07:24:46;53.30;46.60;65.92;;
76338;Laerm;20358;50.272;19.026;2022-11-15T07:27:11;54.64;45.32;68.55;;
76338;Laerm;20358;50.272;19.026;2022-11-15T07:29:41;55.86;46.52;70.84;;
76338;Laerm;20358;50.272;19.026;2022-11-15T07:32:07;55.60;46.99;70.46;;
76338;Laerm;20358;50.272;19.026;2022-11-15T07:34:32;53.36;45.10;69.42;;
76338;Laerm;20358;50.272;19.026;2022-11-15T07:36:59;52.52;45.26;64.98;;
76338;Laerm;20358;50.272;19.026;2022-11-15T07:39:26;53.21;46.54;65.63;;
76338;Laerm;20358;50.272;19.026;2022-11-15T07:41:51;53.98;44.65;66.86;;
76338;Laerm;20358;50.272;19.026;2022-11-15T07:44:37;54.14;46.61;68.44;;
76338;Laerm;20358;50.272;19.026;2022-11-15T07:47:09;52.38;46.50;64.47;;
76338;Laerm;20358;50.272;19.026;2022-11-15T07:49:34;52.49;44.89;60.33;;
76338;Laerm;20358;50.272;19.026;2022-11-15T07:52:03;53.37;46.80;69.88;;
76338;Laerm;20358;50.272;19.026;2022-11-15T07:54:29;54.13;47.92;69.37;;
76338;Laerm;20358;50.272;19.026;2022-11-15T07:56:55;53.59;45.58;72.05;;
76338;Laerm;20358;50.272;19.026;2022-11-15T07:59:27;52.54;45.38;68.17;;
76338;Laerm;20358;50.272;19.026;2022-11-15T08:01:52;53.32;45.70;68.22;;
76338;Laerm;20358;50.272;19.026;2022-11-15T08:04:21;53.70;46.16;69.19;;
76338;Laerm;20358;50.272;19.026;2022-11-15T08:06:47;54.61;45.04;67.58;;
76338;Laerm;20358;50.272;19.026;2022-11-15T08:09:12;53.37;46.06;66.04;;
76338;Laerm;20358;50.272;19.026;2022-11-15T08:11:37;53.32;45.89;67.14;;
76338;Laerm;20358;50.272;19.026;2022-11-15T08:14:06;54.27;45.89;65.07;;
76338;Laerm;20358;50.272;19.026;2022-11-15T08:16:31;53.92;45.94;65.48;;
76338;Laerm;20358;50.272;19.026;2022-11-15T08:18:56;53.32;46.54;67.48;;
76338;Laerm;20358;50.272;19.026;2022-11-15T08:21:28;52.73;45.71;69.93;;
76338;Laerm;20358;50.272;19.026;2022-11-15T08:23:54;53.21;45.47;65.30;;
76338;Laerm;20358;50.272;19.026;2022-11-15T08:26:19;52.70;46.74;64.35;;
76338;Laerm;20358;50.272;19.026;2022-11-15T08:28:45;52.97;45.11;68.27;;
76338;Laerm;20358;50.272;19.026;2022-11-15T08:31:14;53.86;46.67;70.08;;
76338;Laerm;20358;50.272;19.026;2022-11-15T08:33:40;52.84;46.83;64.76;;
76338;Laerm;20358;50.272;19.026;2022-11-15T08:36:09;55.17;48.48;69.71;;
76338;Laerm;20358;50.272;19.026;2022-11-15T08:38:38;55.67;46.30;80.11;;
76338;Laerm;20358;50.272;19.026;2022-11-15T08:41:05;53.10;46.35;64.98;;
76338;Laerm;20358;50.272;19.026;2022-11-15T08:43:32;55.23;46.42;70.20;;
76338;Laerm;20358;50.272;19.026;2022-11-15T08:45:58;53.62;48.09;69.92;;
76338;Laerm;20358;50.272;19.026;2022-11-15T08:48:25;57.11;48.97;73.85;;
76338;Laerm;20358;50.272;19.026;2022-11-15T08:50:54;56.55;47.01;76.88;;
76338;Laerm;20358;50.272;19.026;2022-11-15T08:53:19;53.40;47.84;62.98;;
76338;Laerm;20358;50.272;19.026;2022-11-15T08:55:47;53.10;46.16;65.90;;
76338;Laerm;20358;50.272;19.026;2022-11-15T08:58:13;52.31;46.11;65.25;;
76338;Laerm;20358;50.272;19.026;2022-11-15T09:00:38;53.42;45.36;71.28;;
76338;Laerm;20358;50.272;19.026;2022-11-15T09:03:06;53.09;45.93;73.05;;
76338;Laerm;20358;50.272;19.026;2022-11-15T09:05:32;53.41;44.89;71.07;;
76338;Laerm;20358;50.272;19.026;2022-11-15T09:08:00;53.02;46.38;69.17;;
76338;Laerm;20358;50.272;19.026;2022-11-15T09:10:51;54.75;45.86;68.15;;
76338;Laerm;20358;50.272;19.026;2022-11-15T09:13:17;53.48;45.78;67.35;;
76338;Laerm;20358;50.272;19.026;2022-11-15T09:15:43;52.10;46.61;61.87;;
76338;Laerm;20358;50.272;19.026;2022-11-15T09:18:09;52.02;44.50;64.54;;
76338;Laerm;20358;50.272;19.026;2022-11-15T09:20:35;52.59;44.61;68.89;;
76338;Laerm;20358;50.272;19.026;2022-11-15T09:23:00;52.20;45.50;64.06;;
76338;Laerm;20358;50.272;19.026;2022-11-15T09:25:29;53.13;43.45;71.16;;
76338;Laerm;20358;50.272;19.026;2022-11-15T09:27:57;53.70;44.99;69.47;;
76338;Laerm;20358;50.272;19.026;2022-11-15T09:30:25;50.99;44.59;67.32;;
76338;Laerm;20358;50.272;19.026;2022-11-15T09:32:51;52.39;44.81;68.67;;
76338;Laerm;20358;50.272;19.026;2022-11-15T09:35:17;54.46;45.16;71.64;;
76338;Laerm;20358;50.272;19.026;2022-11-15T09:37:42;55.59;46.60;73.86;;
76338;Laerm;20358;50.272;19.026;2022-11-15T09:40:16;51.55;45.30;62.63;;
76338;Laerm;20358;50.272;19.026;2022-11-15T09:43:24;51.89;45.47;66.85;;
76338;Laerm;20358;50.272;19.026;2022-11-15T09:46:13;52.48;44.07;67.58;;
76338;Laerm;20358;50.272;19.026;2022-11-15T09:48:51;51.94;44.96;60.11;;
76338;Laerm;20358;50.272;19.026;2022-11-15T09:51:33;53.04;43.64;67.46;;
76338;Laerm;20358;50.272;19.026;2022-11-15T09:53:49;51.94;43.81;67.33;;
76338;Laerm;20358;50.272;19.026;2022-11-15T09:56:21;52.67;45.20;67.74;;
76338;Laerm;20358;50.272;19.026;2022-11-15T09:58:40;53.07;45.57;67.23;;
76338;Laerm;20358;50.272;19.026;2022-11-15T10:00:53;52.31;44.76;65.99;;
76338;Laerm;20358;50.272;19.026;2022-11-15T10:03:11;52.10;44.68;68.48;;
76338;Laerm;20358;50.272;19.026;2022-11-15T10:05:24;53.29;44.19;68.32;;
76338;Laerm;20358;50.272;19.026;2022-11-15T10:07:48;52.89;45.72;66.30;;
76338;Laerm;20358;50.272;19.026;2022-11-15T10:10:11;52.80;44.44;70.88;;
76338;Laerm;20358;50.272;19.026;2022-11-15T10:12:23;52.31;43.84;69.16;;
76338;Laerm;20358;50.272;19.026;2022-11-15T10:14:36;52.08;46.08;61.27;;
76338;Laerm;20358;50.272;19.026;2022-11-15T10:17:26;53.61;45.93;67.51;;
76338;Laerm;20358;50.272;19.026;2022-11-15T10:19:54;54.12;44.72;66.98;;
76338;Laerm;20358;50.272;19.026;2022-11-15T10:22:28;54.79;43.40;70.05;;
76338;Laerm;20358;50.272;19.026;2022-11-15T10:24:43;51.71;44.96;61.62;;
76338;Laerm;20358;50.272;19.026;2022-11-15T10:26:50;52.06;45.47;65.65;;
76338;Laerm;20358;50.272;19.026;2022-11-15T10:28:57;51.73;44.98;64.21;;
76338;Laerm;20358;50.272;19.026;2022-11-15T10:31:23;51.98;44.21;64.66;;
76338;Laerm;20358;50.272;19.026;2022-11-15T10:33:33;54.85;46.79;67.72;;
76338;Laerm;20358;50.272;19.026;2022-11-15T10:35:42;54.81;48.20;69.13;;
76338;Laerm;20358;50.272;19.026;2022-11-15T10:37:50;52.67;45.58;64.85;;
76338;Laerm;20358;50.272;19.026;2022-11-15T10:40:05;52.11;44.43;65.98;;
76338;Laerm;20358;50.272;19.026;2022-11-15T10:42:22;52.53;43.40;68.72;;
76338;Laerm;20358;50.272;19.026;2022-11-15T10:44:42;54.43;47.37;74.98;;
76338;Laerm;20358;50.272;19.026;2022-11-15T10:47:26;53.03;45.10;71.72;;
76338;Laerm;20358;50.272;19.026;2022-11-15T10:49:56;52.57;44.98;66.57;;
76338;Laerm;20358;50.272;19.026;2022-11-15T10:52:18;52.59;44.74;65.51;;
76338;Laerm;20358;50.272;19.026;2022-11-15T10:54:40;52.99;44.51;71.05;;
76338;Laerm;20358;50.272;19.026;2022-11-15T10:56:52;53.84;45.81;68.73;;
76338;Laerm;20358;50.272;19.026;2022-11-15T10:58:59;54.01;45.04;69.86;;
76338;Laerm;20358;50.272;19.026;2022-11-15T11:01:14;53.33;45.89;70.60;;
76338;Laerm;20358;50.272;19.026;2022-11-15T11:03:37;52.71;45.15;66.44;;
76338;Laerm;20358;50.272;19.026;2022-11-15T11:05:44;51.31;43.94;69.14;;
76338;Laerm;20358;50.272;19.026;2022-11-15T11:07:57;54.91;45.63;72.43;;
76338;Laerm;20358;50.272;19.026;2022-11-15T11:10:20;52.55;44.63;65.16;;
76338;Laerm;20358;50.272;19.026;2022-11-15T11:12:47;53.96;45.71;69.32;;
76338;Laerm;20358;50.272;19.026;2022-11-15T11:14:54;52.89;46.71;66.25;;
76338;Laerm;20358;50.272;19.026;2022-11-15T11:17:13;53.81;45.75;73.93;;
76338;Laerm;20358;50.272;19.026;2022-11-15T11:19:52;55.40;45.88;71.24;;
76338;Laerm;20358;50.272;19.026;2022-11-15T11:22:15;53.81;45.37;71.44;;
76338;Laerm;20358;50.272;19.026;2022-11-15T11:24:36;54.70;44.41;68.83;;
76338;Laerm;20358;50.272;19.026;2022-11-15T11:26:59;52.95;45.32;64.40;;
76338;Laerm;20358;50.272;19.026;2022-11-15T11:29:38;52.78;43.35;65.44;;
76338;Laerm;20358;50.272;19.026;2022-11-15T11:32:02;52.71;42.56;67.36;;
76338;Laerm;20358;50.272;19.026;2022-11-15T11:34:40;55.46;45.59;69.95;;
76338;Laerm;20358;50.272;19.026;2022-11-15T11:37:04;56.01;46.76;71.55;;
76338;Laerm;20358;50.272;19.026;2022-11-15T11:39:31;58.15;47.59;87.83;;
76338;Laerm;20358;50.272;19.026;2022-11-15T11:41:55;55.74;47.31;68.90;;
76338;Laerm;20358;50.272;19.026;2022-11-15T11:44:24;54.27;44.00;72.41;;
76338;Laerm;20358;50.272;19.026;2022-11-15T11:46:49;55.42;45.62;70.34;;
76338;Laerm;20358;50.272;19.026;2022-11-15T11:49:07;55.59;46.47;73.49;;
76338;Laerm;20358;50.272;19.026;2022-11-15T11:51:24;53.41;44.01;68.85;;
76338;Laerm;20358;50.272;19.026;2022-11-15T11:53:44;53.03;43.70;63.13;;
76338;Laerm;20358;50.272;19.026;2022-11-15T11:55:58;51.41;43.15;70.62;;
76338;Laerm;20358;50.272;19.026;2022-11-15T11:58:20;53.83;43.16;68.02;;
76338;Laerm;20358;50.272;19.026;2022-11-15T12:00:40;52.61;44.81;70.98;;
76338;Laerm;20358;50.272;19.026;2022-11-15T12:03:04;54.65;43.13;70.23;;
76338;Laerm;20358;50.272;19.026;2022-11-15T12:05:28;53.09;43.15;67.88;;
76338;Laerm;20358;50.272;19.026;2022-11-15T12:07:45;53.27;44.91;70.71;;
76338;Laerm;20358;50.272;19.026;2022-11-15T12:10:01;52.16;43.99;67.74;;
76338;Laerm;20358;50.272;19.026;2022-11-15T12:12:17;53.67;45.06;68.18;;
76338;Laerm;20358;50.272;19.026;2022-11-15T12:14:45;52.98;44.00;70.68;;
76338;Laerm;20358;50.272;19.026;2022-11-15T12:16:53;53.84;47.12;66.38;;
76338;Laerm;20358;50.272;19.026;2022-11-15T12:19:03;54.71;44.02;67.25;;
76338;Laerm;20358;50.272;19.026;2022-11-15T12:21:23;51.92;43.51;63.18;;
76338;Laerm;20358;50.272;19.026;2022-11-15T12:23:45;52.07;43.29;64.61;;
76338;Laerm;20358;50.272;19.026;2022-11-15T12:26:00;53.06;46.23;64.57;;
76338;Laerm;20358;50.272;19.026;2022-11-15T12:28:21;50.77;40.84;66.79;;
76338;Laerm;20358;50.272;19.026;2022-11-15T12:30:46;52.30;42.93;63.57;;
76338;Laerm;20358;50.272;19.026;2022-11-15T12:32:59;51.24;44.69;62.48;;
76338;Laerm;20358;50.272;19.026;2022-11-15T12:35:28;52.49;43.16;63.62;;
76338;Laerm;20358;50.272;19.026;2022-11-15T12:37:55;51.74;43.47;64.37;;
76338;Laerm;20358;50.272;19.026;2022-11-15T12:40:26;50.86;43.16;62.96;;
76338;Laerm;20358;50.272;19.026;2022-11-15T12:42:42;52.40;40.79;67.45;;
76338;Laerm;20358;50.272;19.026;2022-11-15T12:45:00;52.43;43.61;64.17;;
76338;Laerm;20358;50.272;19.026;2022-11-15T12:47:25;53.91;47.84;65.50;;
76338;Laerm;20358;50.272;19.026;2022-11-15T12:49:47;52.27;45.30;63.86;;
76338;Laerm;20358;50.272;19.026;2022-11-15T12:52:07;53.08;43.68;69.71;;
76338;Laerm;20358;50.272;19.026;2022-11-15T12:54:52;54.80;42.63;76.11;;
76338;Laerm;20358;50.272;19.026;2022-11-15T12:57:40;55.41;43.51;69.45;;
76338;Laerm;20358;50.272;19.026;2022-11-15T12:59:49;52.20;44.39;66.84;;
76338;Laerm;20358;50.272;19.026;2022-11-15T13:02:00;54.51;44.70;68.31;;
76338;Laerm;20358;50.272;19.026;2022-11-15T13:04:22;53.64;46.61;65.81;;
76338;Laerm;20358;50.272;19.026;2022-11-15T13:06:43;53.49;45.25;70.25;;
76338;Laerm;20358;50.272;19.026;2022-11-15T13:08:50;51.83;44.13;67.96;;
76338;Laerm;20358;50.272;19.026;2022-11-15T13:10:58;53.98;44.09;71.07;;
76338;Laerm;20358;50.272;19.026;2022-11-15T13:13:45;52.86;44.91;68.53;;
76338;Laerm;20358;50.272;19.026;2022-11-15T13:15:55;53.25;44.27;65.31;;
76338;Laerm;20358;50.272;19.026;2022-11-15T13:18:33;53.81;47.13;67.20;;
76338;Laerm;20358;50.272;19.026;2022-11-15T13:20:45;52.76;46.26;67.34;;
76338;Laerm;20358;50.272;19.026;2022-11-15T13:23:01;53.08;43.03;64.40;;
76338;Laerm;20358;50.272;19.026;2022-11-15T13:25:17;53.72;45.16;68.28;;
76338;Laerm;20358;50.272;19.026;2022-11-15T13:27:25;53.82;45.74;69.25;;
76338;Laerm;20358;50.272;19.026;2022-11-15T13:29:34;57.48;45.97;70.36;;
76338;Laerm;20358;50.272;19.026;2022-11-15T13:31:44;53.19;45.34;68.33;;
76338;Laerm;20358;50.272;19.026;2022-11-15T13:33:56;53.53;46.98;66.64;;